createdAt,value
2023-03-17T00:01:51.218Z,68.38
2023-03-17T00:04:20.049Z,68.36
2023-03-17T00:06:48.652Z,68.35
2023-03-17T00:09:19.419Z,68.39
2023-03-17T00:11:49.270Z,68.36
2023-03-17T00:14:17.743Z,67.91
2023-03-17T00:16:49.586Z,67.84
2023-03-17T00:19:20.667Z,67.79
2023-03-17T00:21:50.151Z,68.04
2023-03-17T00:24:18.331Z,68.06
2023-03-17T00:26:46.972Z,67.71
2023-03-17T00:29:17.134Z,67.66
2023-03-17T00:31:46.301Z,68.05
2023-03-17T00:34:18.302Z,68.00
2023-03-17T00:36:50.711Z,67.11
2023-03-17T00:39:19.619Z,67.23
2023-03-17T00:41:48.334Z,67.03
2023-03-17T00:44:18.478Z,66.93
2023-03-17T00:46:47.392Z,66.47
2023-03-17T00:51:46.299Z,66.56
2023-03-17T00:54:16.896Z,66.22
2023-03-17T00:56:45.890Z,66.22
2023-03-17T00:59:22.542Z,66.51
2023-03-17T01:01:51.149Z,66.99
2023-03-17T01:04:19.976Z,66.80
2023-03-17T01:06:50.452Z,66.90
2023-03-17T01:09:24.124Z,67.40
2023-03-17T01:11:52.342Z,67.59
2023-03-17T01:14:22.524Z,68.10
2023-03-17T01:16:52.973Z,68.30
2023-03-17T01:19:21.129Z,68.67
2023-03-17T01:21:49.369Z,68.52
2023-03-17T01:24:18.029Z,68.82
2023-03-17T01:26:46.163Z,69.11
2023-03-17T01:29:14.323Z,69.42
2023-03-17T01:31:44.244Z,69.47
2023-03-17T01:34:12.583Z,69.60
2023-03-17T01:36:41.335Z,69.77
2023-03-17T01:39:09.502Z,69.55
2023-03-17T01:41:40.066Z,69.95
2023-03-17T01:44:13.688Z,70.12
2023-03-17T01:46:41.828Z,70.39
2023-03-17T01:49:20.321Z,69.81
2023-03-17T01:51:55.599Z,70.09
2023-03-17T01:54:29.913Z,70.27
2023-03-17T01:57:04.196Z,70.19
2023-03-17T01:59:35.925Z,70.39
2023-03-17T02:02:07.957Z,70.59
2023-03-17T02:04:39.084Z,70.49
2023-03-17T02:07:07.505Z,70.81
2023-03-17T02:09:36.611Z,70.33
2023-03-17T02:12:06.939Z,70.62
2023-03-17T02:14:36.428Z,70.26
2023-03-17T02:17:04.627Z,69.91
2023-03-17T02:19:32.812Z,69.70
2023-03-17T02:22:02.585Z,70.01
2023-03-17T02:24:35.572Z,70.12
2023-03-17T02:27:11.832Z,69.84
2023-03-17T02:29:40.433Z,69.91
2023-03-17T02:32:10.920Z,69.66
2023-03-17T02:34:39.383Z,69.16
2023-03-17T02:37:09.031Z,69.75
2023-03-17T02:39:37.987Z,70.20
2023-03-17T02:42:07.433Z,70.51
2023-03-17T02:44:36.152Z,71.11
2023-03-17T02:47:04.485Z,71.35
2023-03-17T02:49:34.037Z,71.96
2023-03-17T02:52:02.605Z,72.03
2023-03-17T02:54:32.272Z,72.03
2023-03-17T02:57:01.210Z,71.85
2023-03-17T02:59:29.588Z,72.38
2023-03-17T03:01:58.061Z,71.80
2023-03-17T03:04:26.307Z,71.38
2023-03-17T03:06:55.134Z,70.99
2023-03-17T03:09:24.231Z,71.43
2023-03-17T03:11:53.793Z,71.44
2023-03-17T03:14:21.940Z,71.48
2023-03-17T03:16:50.043Z,71.53
2023-03-17T03:19:18.571Z,71.51
2023-03-17T03:21:47.111Z,71.92
2023-03-17T03:24:15.258Z,71.87
2023-03-17T03:26:43.880Z,72.18
2023-03-17T03:29:13.367Z,71.93
2023-03-17T03:31:41.628Z,71.80
2023-03-17T03:34:09.798Z,71.74
2023-03-17T03:36:37.930Z,71.79
2023-03-17T03:39:06.118Z,71.61
2023-03-17T03:41:34.249Z,71.73
2023-03-17T03:44:02.744Z,72.01
2023-03-17T03:46:32.381Z,71.68
2023-03-17T03:49:00.744Z,71.91
2023-03-17T03:51:28.885Z,71.76
2023-03-17T03:53:57.107Z,71.60
2023-03-17T03:56:25.467Z,71.62
2023-03-17T03:58:53.723Z,71.70
2023-03-17T04:01:21.935Z,71.07
2023-03-17T04:03:51.562Z,71.49
2023-03-17T04:06:19.835Z,71.66
2023-03-17T04:08:48.087Z,71.74
2023-03-17T04:11:16.658Z,71.91
2023-03-17T04:13:44.814Z,72.19
2023-03-17T04:16:12.973Z,71.96
2023-03-17T04:18:41.357Z,71.97
2023-03-17T04:21:10.850Z,72.42
2023-03-17T04:23:39.522Z,72.32
2023-03-17T04:26:07.733Z,72.12
2023-03-17T04:28:35.879Z,71.95
2023-03-17T04:31:04.267Z,71.94
2023-03-17T04:33:32.418Z,72.08
2023-03-17T04:36:00.714Z,72.45
2023-03-17T04:38:30.264Z,72.76
2023-03-17T04:40:58.392Z,73.01
2023-03-17T04:43:27.144Z,73.19
2023-03-17T04:45:55.344Z,73.28
2023-03-17T04:48:23.830Z,73.49
2023-03-17T04:50:51.952Z,73.11
2023-03-17T04:53:20.094Z,73.31
2023-03-17T04:55:49.590Z,73.38
2023-03-17T04:58:29.821Z,73.27
2023-03-17T05:00:58.989Z,73.29
2023-03-17T05:03:28.791Z,73.79
2023-03-17T05:05:57.700Z,73.79
2023-03-17T05:08:28.248Z,73.86
2023-03-17T05:10:58.622Z,73.97
2023-03-17T05:13:27.576Z,74.01
2023-03-17T05:15:56.949Z,73.93
2023-03-17T05:18:26.892Z,73.15
2023-03-17T05:20:55.569Z,73.41
2023-03-17T05:23:24.163Z,73.41
2023-03-17T05:25:53.069Z,72.93
2023-03-17T05:28:23.282Z,73.16
2023-03-17T05:30:52.046Z,72.88
2023-03-17T05:33:21.585Z,72.85
2023-03-17T05:35:50.170Z,72.67
2023-03-17T05:38:18.815Z,72.99
2023-03-17T05:40:48.385Z,73.16
2023-03-17T05:43:16.828Z,72.96
2023-03-17T05:45:47.288Z,72.84
2023-03-17T05:48:15.651Z,72.62
2023-03-17T05:50:44.295Z,72.59
2023-03-17T05:53:12.440Z,72.70
2023-03-17T05:55:40.605Z,72.86
2023-03-17T05:58:09.579Z,73.14
2023-03-17T06:00:37.927Z,72.87
2023-03-17T06:03:07.827Z,72.79
2023-03-17T06:05:36.949Z,72.89
2023-03-17T06:08:05.716Z,72.57
2023-03-17T06:10:34.238Z,71.74
2023-03-17T06:13:04.021Z,71.02
2023-03-17T06:15:33.872Z,71.31
2023-03-17T06:18:02.450Z,70.61
2023-03-17T06:20:32.279Z,70.44
2023-03-17T06:23:04.749Z,69.75
2023-03-17T06:25:34.534Z,69.17
2023-03-17T06:28:03.891Z,69.50
2023-03-17T06:30:33.832Z,69.35
2023-03-17T06:33:02.278Z,69.34
2023-03-17T06:35:32.727Z,69.58
2023-03-17T06:38:01.174Z,69.62
2023-03-17T06:40:29.626Z,69.39
2023-03-17T06:42:57.773Z,69.28
2023-03-17T06:45:26.740Z,69.49
2023-03-17T06:47:54.882Z,68.79
2023-03-17T06:50:23.097Z,68.87
2023-03-17T06:52:52.715Z,68.85
2023-03-17T06:55:21.548Z,69.14
2023-03-17T06:57:51.243Z,68.82
2023-03-17T07:00:20.996Z,68.28
2023-03-17T07:02:49.451Z,68.56
2023-03-17T07:05:17.947Z,67.79
2023-03-17T07:07:47.263Z,67.39
2023-03-17T07:10:17.336Z,67.51
2023-03-17T07:12:46.478Z,67.53
2023-03-17T07:15:14.621Z,68.25
2023-03-17T07:17:42.778Z,67.76
2023-03-17T07:20:12.100Z,67.39
2023-03-17T07:22:40.611Z,67.94
2023-03-17T07:25:09.659Z,68.07
2023-03-17T07:27:39.494Z,68.28
2023-03-17T07:30:09.120Z,67.84
2023-03-17T07:32:38.022Z,67.44
2023-03-17T07:35:07.380Z,67.61
2023-03-17T07:37:35.552Z,67.13
2023-03-17T07:40:03.781Z,67.00
2023-03-17T07:42:32.214Z,66.79
2023-03-17T07:45:01.960Z,66.51
2023-03-17T07:47:30.415Z,66.40
2023-03-17T07:49:58.622Z,65.86
2023-03-17T07:52:26.850Z,65.20
2023-03-17T07:54:55.919Z,64.77
2023-03-17T07:57:24.175Z,64.42
2023-03-17T07:59:52.390Z,63.99
2023-03-17T08:02:22.109Z,63.99
2023-03-17T08:04:50.977Z,63.38
2023-03-17T08:07:19.508Z,62.86
2023-03-17T08:09:48.046Z,62.32
2023-03-17T08:12:16.487Z,62.20
2023-03-17T08:14:44.837Z,61.50
2023-03-17T08:17:13.530Z,60.78
2023-03-17T08:19:43.768Z,60.63
2023-03-17T08:22:12.420Z,60.12
2023-03-17T08:24:42.902Z,60.32
2023-03-17T08:27:11.356Z,59.84
2023-03-17T08:29:40.060Z,60.11
2023-03-17T08:32:09.558Z,59.54
2023-03-17T08:34:38.443Z,58.76
2023-03-17T08:37:11.299Z,59.39
2023-03-17T08:39:40.308Z,59.62
2023-03-17T08:42:08.483Z,59.71
2023-03-17T08:44:37.244Z,58.96
2023-03-17T08:47:06.122Z,58.46
2023-03-17T08:49:36.480Z,58.21
2023-03-17T08:52:05.028Z,58.44
2023-03-17T08:54:35.794Z,57.65
2023-03-17T08:57:04.257Z,57.84
2023-03-17T08:59:32.798Z,57.28
2023-03-17T09:02:01.559Z,56.76
2023-03-17T09:04:30.036Z,56.38
2023-03-17T09:07:03.790Z,55.58
2023-03-17T09:09:35.327Z,54.49
2023-03-17T09:12:06.573Z,54.14
2023-03-17T09:14:43.470Z,54.44
2023-03-17T09:17:13.898Z,54.04
2023-03-17T09:19:43.376Z,52.45
2023-03-17T09:22:13.940Z,52.56
2023-03-17T09:24:43.531Z,53.60
2023-03-17T09:27:12.006Z,52.08
2023-03-17T09:29:40.365Z,52.01
2023-03-17T09:32:09.249Z,51.65
2023-03-17T09:34:37.542Z,51.97
2023-03-17T09:37:05.769Z,51.51
2023-03-17T09:39:34.412Z,51.20
2023-03-17T09:42:34.562Z,51.27
2023-03-17T09:45:20.500Z,50.94
2023-03-17T09:48:07.305Z,51.26
2023-03-17T09:50:44.684Z,51.54
2023-03-17T09:53:19.768Z,52.26
2023-03-17T09:55:52.649Z,51.96
2023-03-17T09:58:29.337Z,51.25
2023-03-17T10:00:57.838Z,52.15
2023-03-17T10:03:27.269Z,50.91
2023-03-17T10:06:13.265Z,51.21
2023-03-17T10:08:48.817Z,51.03
2023-03-17T10:11:26.409Z,51.45
2023-03-17T10:14:02.096Z,51.41
2023-03-17T10:16:40.184Z,51.08
2023-03-17T10:19:19.487Z,50.51
2023-03-17T10:21:51.441Z,50.98
2023-03-17T10:24:20.775Z,50.91
2023-03-17T10:26:51.580Z,50.59
2023-03-17T10:29:23.812Z,50.10
2023-03-17T10:31:56.243Z,50.26
2023-03-17T10:34:28.611Z,50.03
2023-03-17T10:37:03.212Z,50.21
2023-03-17T10:39:32.956Z,49.87
2023-03-17T10:42:09.665Z,50.69
2023-03-17T10:44:44.280Z,50.00
2023-03-17T10:47:25.089Z,49.11
2023-03-17T10:49:53.488Z,49.46
2023-03-17T10:52:27.377Z,49.37
2023-03-17T10:54:55.732Z,48.96
2023-03-17T10:57:23.932Z,49.43
2023-03-17T10:59:56.501Z,49.51
2023-03-17T11:02:27.955Z,49.41
2023-03-17T11:05:01.413Z,49.17
2023-03-17T11:07:38.135Z,48.02
2023-03-17T11:10:18.128Z,48.65
2023-03-17T11:12:50.133Z,48.93
2023-03-17T11:15:20.438Z,49.28
2023-03-17T11:17:58.328Z,48.73
2023-03-17T11:20:47.670Z,48.45
2023-03-17T11:23:51.753Z,48.44
2023-03-17T11:26:42.973Z,48.18
2023-03-17T11:29:22.454Z,47.58
2023-03-17T11:32:00.419Z,47.54
2023-03-17T11:34:41.451Z,47.81
2023-03-17T11:37:22.611Z,47.51
2023-03-17T11:39:57.684Z,47.30
2023-03-17T11:42:30.534Z,47.04
2023-03-17T11:45:10.814Z,47.11
2023-03-17T11:47:53.696Z,47.36
2023-03-17T11:50:30.398Z,46.95
2023-03-17T11:53:17.872Z,46.18
2023-03-17T11:55:50.092Z,45.94
2023-03-17T11:58:28.624Z,45.78
2023-03-17T12:01:01.320Z,45.37
2023-03-17T12:03:38.794Z,45.49
2023-03-17T12:06:15.806Z,45.45
2023-03-17T12:08:47.653Z,45.29
2023-03-17T12:11:22.022Z,45.79
2023-03-17T12:13:54.767Z,43.90
2023-03-17T12:16:32.160Z,43.79
2023-03-17T12:19:14.612Z,44.32
2023-03-17T12:21:50.195Z,44.47
2023-03-17T12:24:22.622Z,44.88
2023-03-17T12:26:57.597Z,44.06
2023-03-17T12:29:35.703Z,44.42
2023-03-17T12:32:08.353Z,44.57
2023-03-17T12:34:46.103Z,44.22
2023-03-17T12:37:17.260Z,44.13
2023-03-17T12:39:51.246Z,44.41
2023-03-17T12:42:35.628Z,43.78
2023-03-17T12:45:26.336Z,45.03
2023-03-17T12:48:08.141Z,44.34
2023-03-17T12:51:06.576Z,44.84
2023-03-17T12:53:37.645Z,43.74
2023-03-17T12:56:12.825Z,43.87
2023-03-17T12:58:44.872Z,42.96
2023-03-17T13:01:20.277Z,43.44
2023-03-17T13:04:01.880Z,42.95
2023-03-17T13:06:40.092Z,43.12
2023-03-17T13:09:31.365Z,43.70
2023-03-17T13:12:01.213Z,43.54
2023-03-17T13:14:42.539Z,44.21
2023-03-17T13:17:33.084Z,43.85
2023-03-17T13:20:14.389Z,43.39
2023-03-17T13:23:03.524Z,43.86
2023-03-17T13:25:34.938Z,43.55
2023-03-17T13:28:18.952Z,43.61
2023-03-17T13:31:09.755Z,43.43
2023-03-17T13:33:44.558Z,42.98
2023-03-17T13:36:29.628Z,43.41
2023-03-17T13:39:28.243Z,43.14
2023-03-17T13:42:17.774Z,42.74
2023-03-17T13:45:18.701Z,43.36
2023-03-17T13:47:47.225Z,42.77
2023-03-17T13:50:17.791Z,42.84
2023-03-17T13:52:49.534Z,42.53
2023-03-17T13:55:35.692Z,43.22
2023-03-17T13:58:26.357Z,43.30
2023-03-17T14:01:02.497Z,43.54
2023-03-17T14:03:36.558Z,43.14
2023-03-17T14:06:08.048Z,43.31
2023-03-17T14:08:38.126Z,44.04
2023-03-17T14:11:22.375Z,43.63
2023-03-17T14:13:57.213Z,43.56
2023-03-17T14:16:29.024Z,43.23
2023-03-17T14:19:02.340Z,43.58
2023-03-17T14:21:32.194Z,43.69
2023-03-17T14:24:02.394Z,43.52
2023-03-17T14:26:33.411Z,43.68
2023-03-17T14:29:02.557Z,43.32
2023-03-17T14:31:30.968Z,43.58
2023-03-17T14:34:00.836Z,43.40
2023-03-17T14:36:33.601Z,43.31
2023-03-17T14:39:01.781Z,43.05
2023-03-17T14:41:34.294Z,43.59
2023-03-17T14:44:03.256Z,43.56
2023-03-17T14:46:34.235Z,44.02
2023-03-17T14:49:05.126Z,43.79
2023-03-17T14:51:36.016Z,43.60
2023-03-17T14:54:11.341Z,43.86
2023-03-17T14:56:43.868Z,43.40
2023-03-17T14:59:19.954Z,43.39
2023-03-17T15:01:48.906Z,43.36
2023-03-17T15:04:18.909Z,43.20
2023-03-17T15:06:50.360Z,43.09
2023-03-17T15:09:20.902Z,43.21
2023-03-17T15:11:50.437Z,43.14
2023-03-17T15:14:22.607Z,42.87
2023-03-17T15:16:52.770Z,43.29
2023-03-17T15:19:24.020Z,43.28
2023-03-17T15:21:52.843Z,42.92
2023-03-17T15:24:27.526Z,43.68
2023-03-17T15:27:05.511Z,43.39
2023-03-17T15:29:34.271Z,43.61
2023-03-17T15:32:11.355Z,43.75
2023-03-17T15:34:39.496Z,44.12
2023-03-17T15:37:16.010Z,44.38
2023-03-17T15:39:44.410Z,44.54
2023-03-17T15:42:14.006Z,43.74
2023-03-17T15:44:42.179Z,44.71
2023-03-17T15:47:14.996Z,44.29
2023-03-17T15:49:43.907Z,44.08
2023-03-17T15:52:16.940Z,44.49
2023-03-17T15:54:46.821Z,44.96
2023-03-17T15:57:16.459Z,45.46
2023-03-17T15:59:44.882Z,45.76
2023-03-17T16:02:25.828Z,46.22
2023-03-17T16:04:54.578Z,46.37
2023-03-17T16:07:22.788Z,47.17
2023-03-17T16:09:51.386Z,46.69
2023-03-17T16:12:21.198Z,46.63
2023-03-17T16:14:49.459Z,47.13
2023-03-17T16:17:22.666Z,47.03
2023-03-17T16:19:51.164Z,47.17
2023-03-17T16:22:38.420Z,46.60
2023-03-17T16:25:19.217Z,46.72
2023-03-17T16:27:49.890Z,47.28
2023-03-17T16:30:19.613Z,47.85
2023-03-17T16:32:48.060Z,48.15
2023-03-17T16:35:18.139Z,48.44
2023-03-17T16:37:47.048Z,47.71
2023-03-17T16:40:20.815Z,48.19
2023-03-17T16:42:50.826Z,48.33
2023-03-17T16:45:23.315Z,48.48
2023-03-17T16:47:51.442Z,48.72
2023-03-17T16:50:22.470Z,48.22
2023-03-17T16:52:50.894Z,47.36
2023-03-17T16:55:20.854Z,47.58
2023-03-17T16:57:53.347Z,48.04
2023-03-17T17:00:24.784Z,48.24
2023-03-17T17:02:53.825Z,49.12
2023-03-17T17:05:23.800Z,49.13
2023-03-17T17:07:55.749Z,49.23
2023-03-17T17:10:26.542Z,49.08
2023-03-17T17:12:56.097Z,49.43
2023-03-17T17:15:24.724Z,49.58
2023-03-17T17:17:56.156Z,50.13
2023-03-17T17:20:28.931Z,50.44
2023-03-17T17:22:59.584Z,51.18
2023-03-17T17:25:28.576Z,50.44
2023-03-17T17:27:58.587Z,50.52
2023-03-17T17:30:29.477Z,50.48
2023-03-17T17:32:59.726Z,50.84
2023-03-17T17:35:32.405Z,51.03
2023-03-17T17:38:01.353Z,50.77
2023-03-17T17:40:30.741Z,50.57
2023-03-17T17:43:01.626Z,51.18
2023-03-17T17:45:29.859Z,51.60
2023-03-17T17:47:58.083Z,51.06
2023-03-17T17:50:30.200Z,51.46
2023-03-17T17:53:04.891Z,50.84
2023-03-17T17:55:34.393Z,51.04
2023-03-17T17:58:04.513Z,50.99
2023-03-17T18:00:33.388Z,51.61
2023-03-17T18:03:01.698Z,51.34
2023-03-17T18:05:29.883Z,50.83
2023-03-17T18:07:58.185Z,50.62
2023-03-17T18:10:29.488Z,51.49
2023-03-17T18:12:58.252Z,51.88
2023-03-17T18:15:28.892Z,51.79
2023-03-17T18:17:57.201Z,51.52
2023-03-17T18:20:26.285Z,51.51
2023-03-17T18:22:54.654Z,51.32
2023-03-17T18:25:25.314Z,51.58
2023-03-17T18:27:54.345Z,51.81
2023-03-17T18:30:26.146Z,51.92
2023-03-17T18:32:57.871Z,52.27
2023-03-17T18:35:28.115Z,52.78
2023-03-17T18:37:57.747Z,52.53
2023-03-17T18:40:26.980Z,52.45
2023-03-17T18:42:55.834Z,53.39
2023-03-17T18:45:24.176Z,53.01
2023-03-17T18:47:52.319Z,52.46
2023-03-17T18:50:22.578Z,53.01
2023-03-17T18:52:51.205Z,53.52
2023-03-17T18:55:19.400Z,53.43
2023-03-17T18:57:48.310Z,53.96
2023-03-17T19:00:18.599Z,53.55
2023-03-17T19:02:46.874Z,53.90
2023-03-17T19:05:15.314Z,53.87
2023-03-17T19:07:44.810Z,54.62
2023-03-17T19:10:14.432Z,54.60
2023-03-17T19:12:43.578Z,54.58
2023-03-17T19:15:13.386Z,54.85
2023-03-17T19:17:41.996Z,54.84
2023-03-17T19:20:12.270Z,54.65
2023-03-17T19:22:40.476Z,54.69
2023-03-17T19:25:10.835Z,55.23
2023-03-17T19:27:39.931Z,55.80
2023-03-17T19:30:09.261Z,56.11
2023-03-17T19:32:37.424Z,56.51
2023-03-17T19:35:07.491Z,56.54
2023-03-17T19:37:37.937Z,56.64
2023-03-17T19:40:08.165Z,56.84
2023-03-17T19:42:37.988Z,56.82
2023-03-17T19:45:07.941Z,56.92
2023-03-17T19:47:36.240Z,56.96
2023-03-17T19:50:04.809Z,56.77
2023-03-17T19:52:33.038Z,56.68
2023-03-17T19:55:01.185Z,57.37
2023-03-17T19:57:29.398Z,57.15
2023-03-17T19:59:58.854Z,57.21
2023-03-17T20:02:27.056Z,57.74
2023-03-17T20:04:57.842Z,57.71
2023-03-17T20:07:28.430Z,57.55
2023-03-17T20:09:57.042Z,56.97
2023-03-17T20:12:25.495Z,57.21
2023-03-17T20:14:53.723Z,57.75
2023-03-17T20:17:23.165Z,57.82
2023-03-17T20:19:51.304Z,57.80
2023-03-17T20:22:19.495Z,57.34
2023-03-17T20:24:47.871Z,57.51
2023-03-17T20:27:16.500Z,57.67
2023-03-17T20:29:45.228Z,57.82
2023-03-17T20:32:14.896Z,58.25
2023-03-17T20:34:45.396Z,58.76
2023-03-17T20:37:14.720Z,58.88
2023-03-17T20:39:44.028Z,58.77
2023-03-17T20:42:14.749Z,58.94
2023-03-17T20:44:43.056Z,58.46
2023-03-17T20:47:11.372Z,58.68
2023-03-17T20:49:39.661Z,58.63
2023-03-17T20:52:13.312Z,58.74
2023-03-17T20:54:41.583Z,58.79
2023-03-17T20:57:13.982Z,58.95
2023-03-17T20:59:43.751Z,58.67
2023-03-17T21:02:17.430Z,59.14
2023-03-17T21:04:48.789Z,58.97
2023-03-17T21:07:22.055Z,59.44
2023-03-17T21:09:51.553Z,59.27
2023-03-17T21:12:20.994Z,59.30
2023-03-17T21:14:49.591Z,59.32
2023-03-17T21:17:18.231Z,59.22
2023-03-17T21:19:47.387Z,59.19
2023-03-17T21:22:16.024Z,59.80
2023-03-17T21:24:45.509Z,60.04
2023-03-17T21:27:13.951Z,59.50
2023-03-17T21:29:42.853Z,59.30
2023-03-17T21:32:11.044Z,59.43
2023-03-17T21:34:39.197Z,59.76
2023-03-17T21:37:07.376Z,59.58
2023-03-17T21:39:36.174Z,59.73
2023-03-17T21:42:08.656Z,59.70
2023-03-17T21:44:37.194Z,60.41
2023-03-17T21:47:05.585Z,59.96
2023-03-17T21:49:33.721Z,60.30
2023-03-17T21:52:01.849Z,60.40
2023-03-17T21:54:30.401Z,60.55
2023-03-17T21:56:58.524Z,59.92
2023-03-17T21:59:30.826Z,60.15
2023-03-17T22:01:59.568Z,60.10
2023-03-17T22:04:28.512Z,59.95
2023-03-17T22:06:56.748Z,60.17
2023-03-17T22:09:24.937Z,60.48
2023-03-17T22:11:53.103Z,60.44
2023-03-17T22:14:21.312Z,60.28
2023-03-17T22:16:51.131Z,60.51
2023-03-17T22:19:21.235Z,60.77
2023-03-17T22:21:49.616Z,60.55
2023-03-17T22:24:19.228Z,60.35
2023-03-17T22:26:47.516Z,60.57
2023-03-17T22:29:16.149Z,60.96
2023-03-17T22:31:44.699Z,60.96
2023-03-17T22:34:14.218Z,60.96
2023-03-17T22:36:42.465Z,61.17
2023-03-17T22:39:10.879Z,60.73
2023-03-17T22:41:39.736Z,60.72
2023-03-17T22:44:09.049Z,60.71
2023-03-17T22:46:38.468Z,60.49
2023-03-17T22:49:06.705Z,60.72
2023-03-17T22:51:37.254Z,60.97
2023-03-17T22:54:05.535Z,60.34
2023-03-17T22:56:33.765Z,60.19
2023-03-17T22:59:02.192Z,60.21
2023-03-17T23:01:31.723Z,60.31
2023-03-17T23:04:00.198Z,60.33
2023-03-17T23:06:28.647Z,60.80
2023-03-17T23:08:58.620Z,60.10
2023-03-17T23:11:28.036Z,60.00
2023-03-17T23:13:56.560Z,60.03
2023-03-17T23:16:24.861Z,59.80
2023-03-17T23:18:53.073Z,59.81
2023-03-17T23:21:24.720Z,60.08
2023-03-17T23:23:52.971Z,59.80
2023-03-17T23:26:22.584Z,59.82
2023-03-17T23:28:50.768Z,59.93
2023-03-17T23:31:19.595Z,59.91
2023-03-17T23:33:48.553Z,59.70
2023-03-17T23:36:17.713Z,59.73
2023-03-17T23:38:46.850Z,59.08
2023-03-17T23:41:16.891Z,59.37
2023-03-17T23:43:46.749Z,59.59
2023-03-17T23:46:15.176Z,59.08
2023-03-17T23:48:43.527Z,59.61
2023-03-17T23:51:12.729Z,59.65
2023-03-17T23:53:41.659Z,59.83
2023-03-17T23:56:11.361Z,60.27
2023-03-17T23:58:39.856Z,60.32
